Camborne, United Kingdom
Current Conditions -  °F | °C
As of 8:50 AM on Thursday 23 Oct 2014 (Local Time) from EGDR Reporting Station
Haze Haze  
Wind Chill: 57°   Ceiling: 100
Heat Index: 57°   Visibility: 0.93mi
Dew Point: 55°   Wind: 12mph
Humidity: 94%   Direction: 210°SSW
Pressure: 30.12"   Gusts: NA
Location:  50.21°N, 5.3°W
Report Text: EGDR 230750Z 21010KT 1500 BR FEW000 BKN001 OVC004 14/13 Q1020 REDZ RED NOSIG
Loading
Personal Weather Stations






























Interactive Weather Map New forecast layout! Learn more

10-Day Weather Forecast

Advertisements
Track Severe Weather on mobile